Oregon Mtn Atmospheric Data: 07/12/2019 Summary  Detailed Graphs  Station List

  Temperature     Wind Precipitation Visibility
Timestamp Air Wet
Bulb
Dew-
point
24-hr
Max
24-hr
Min
Relative
Humidity
Atmospheric
Pressure
Avg
Speed
Avg
Dir
Spot
Speed
Spot
Dir
Max
Speed
Max
Dir
  Rate Situation Start End 1 hr 3 hr 6 hr 12 hr 24 hr   Situation
Date Time °F °F °F °F °F % in Hg mph ° mph ° mph ° Y/N in/hr text Date Time Date Time in in in in in mi text
07/12/2019 12:03 AM 70.52 57.92 48.74 89.78 56.84 46.0 Not Reported 8.72 W 6.04 W 7.83 SW No 0.000 No Precipitation 07/03/2019 11:23 AM 07/03/2019 11:28 AM 0.000 0.000 0.000 0.000 0.000 1.24 Not Reported
07/12/2019 12:18 AM 69.08 57.74 49.10 89.78 56.84 49.0 Not Reported 6.04 SW 5.37 SW 10.51 SW No 0.000 No Precipitation 07/03/2019 11:23 AM 07/03/2019 11:28 AM 0.000 0.000 0.000 0.000 0.000 1.24 Not Reported
07/12/2019 12:33 AM 69.26 57.74 49.46 89.78 56.84 49.0 Not Reported 6.04 W 4.03 W 10.96 SW No 0.000 No Precipitation 07/03/2019 11:23 AM 07/03/2019 11:28 AM 0.000 0.000 0.000 0.000 0.000 1.24 Not Reported
07/12/2019 12:48 AM 67.82 57.38 49.64 89.78 56.84 52.0 Not Reported 4.70 SW 4.25 SW 7.83 W No 0.000 No Precipitation 07/03/2019 11:23 AM 07/03/2019 11:28 AM 0.000 0.000 0.000 0.000 0.000 1.24 Not Reported
07/12/2019 01:03 AM 66.92 57.20 50.00 89.78 56.84 54.0 Not Reported 5.59 W 6.93 W 4.47 W No 0.000 No Precipitation 07/03/2019 11:23 AM 07/03/2019 11:28 AM 0.000 0.000 0.000 0.000 0.000 1.24 Not Reported
07/12/2019 01:18 AM 66.74 57.20 50.36 89.78 56.84 55.0 Not Reported 6.26 W 6.71 W 8.95 W No 0.000 No Precipitation 07/03/2019 11:23 AM 07/03/2019 11:28 AM 0.000 0.000 0.000 0.000 0.000 1.24 Not Reported
07/12/2019 01:33 AM 66.20 57.20 50.54 89.78 56.84 57.0 Not Reported 6.71 W 7.61 W 6.49 W No 0.000 No Precipitation 07/03/2019 11:23 AM 07/03/2019 11:28 AM 0.000 0.000 0.000 0.000 0.000 1.24 Not Reported
07/12/2019 01:48 AM 65.66 57.02 50.72 89.78 56.84 58.0 Not Reported 6.71 W 7.61 W 8.95 W No 0.000 No Precipitation 07/03/2019 11:23 AM 07/03/2019 11:28 AM 0.000 0.000 0.000 0.000 0.000 1.24 Not Reported
07/12/2019 02:03 AM 65.30 57.02 50.90 89.78 56.84 59.0 Not Reported 6.04 NW 6.26 W 7.83 W No 0.000 No Precipitation 07/03/2019 11:23 AM 07/03/2019 11:28 AM 0.000 0.000 0.000 0.000 0.000 1.24 Not Reported
07/12/2019 02:18 AM 64.94 56.84 50.90 89.78 56.84 60.0 Not Reported 4.92 NW 5.82 W 7.16 W No 0.000 No Precipitation 07/03/2019 11:23 AM 07/03/2019 11:28 AM 0.000 0.000 0.000 0.000 0.000 1.24 Not Reported
07/12/2019 02:33 AM 64.58 56.66 50.72 89.78 56.84 60.0 Not Reported 5.14 NW 4.92 W 6.49 NW No 0.000 No Precipitation 07/03/2019 11:23 AM 07/03/2019 11:28 AM 0.000 0.000 0.000 0.000 0.000 1.24 Not Reported
07/12/2019 02:48 AM 64.22 56.48 50.90 89.78 56.84 62.0 Not Reported 4.25 W 4.47 W 5.59 W No 0.000 No Precipitation 07/03/2019 11:23 AM 07/03/2019 11:28 AM 0.000 0.000 0.000 0.000 0.000 1.24 Not Reported
07/12/2019 03:03 AM 62.78 55.94 50.90 89.78 56.84 65.0 Not Reported 2.68 W 3.13 W 4.25 W No 0.000 No Precipitation 07/03/2019 11:23 AM 07/03/2019 11:28 AM 0.000 0.000 0.000 0.000 0.000 1.24 Not Reported
07/12/2019 03:18 AM 62.24 55.76 50.90 89.78 56.84 66.0 Not Reported 0.89 W 3.13 W 3.58 W No 0.000 No Precipitation 07/03/2019 11:23 AM 07/03/2019 11:28 AM 0.000 0.000 0.000 0.000 0.000 1.24 Not Reported
07/12/2019 03:33 AM 62.24 55.76 50.90 89.78 56.84 66.0 Not Reported 2.01 W 2.46 NW 3.80 W No 0.000 No Precipitation 07/03/2019 11:23 AM 07/03/2019 11:28 AM 0.000 0.000 0.000 0.000 0.000 1.24 Not Reported
07/12/2019 03:48 AM 62.42 55.76 50.72 89.78 56.84 65.0 Not Reported 2.46 W 2.24 NW 2.91 NW No 0.000 No Precipitation 07/03/2019 11:23 AM 07/03/2019 11:28 AM 0.000 0.000 0.000 0.000 0.000 1.24 Not Reported
07/12/2019 04:04 AM 62.06 55.76 50.72 89.78 56.84 65.0 Not Reported 2.01 W 2.68 NW 4.25 W No 0.000 No Precipitation 07/03/2019 11:23 AM 07/03/2019 11:28 AM 0.000 0.000 0.000 0.000 0.000 1.24 Not Reported
07/12/2019 04:18 AM 61.34 55.22 50.90 89.78 56.84 68.0 Not Reported 0.00 NW 0.89 W 3.58 W No 0.000 No Precipitation 07/03/2019 11:23 AM 07/03/2019 11:28 AM 0.000 0.000 0.000 0.000 0.000 1.24 Not Reported
07/12/2019 04:33 AM 60.62 55.04 50.90 89.78 56.84 70.0 Not Reported 1.12 W 0.89 W 1.34 SW No 0.000 No Precipitation 07/03/2019 11:23 AM 07/03/2019 11:28 AM 0.000 0.000 0.000 0.000 0.000 1.24 Not Reported
07/12/2019 04:48 AM 60.26 54.86 50.72 89.78 56.84 70.0 Not Reported 1.12 W 0.00 SW 1.79 NW No 0.000 No Precipitation 07/03/2019 11:23 AM 07/03/2019 11:28 AM 0.000 0.000 0.000 0.000 0.000 1.24 Not Reported
07/12/2019 05:04 AM 59.72 54.68 50.90 89.78 56.84 72.0 Not Reported 0.22 NW 0.89 NW 1.12 SW No 0.000 No Precipitation 07/03/2019 11:23 AM 07/03/2019 11:28 AM 0.000 0.000 0.000 0.000 0.000 1.24 Not Reported
07/12/2019 05:18 AM 59.72 54.68 50.90 89.78 56.84 72.0 Not Reported 0.00 N 0.00 NW 1.12 W No 0.000 No Precipitation 07/03/2019 11:23 AM 07/03/2019 11:28 AM 0.000 0.000 0.000 0.000 0.000 1.24 Not Reported
07/12/2019 05:33 AM 60.08 54.86 51.08 89.78 56.84 72.0 Not Reported 1.79 NW 1.12 NW 3.36 NW No 0.000 No Precipitation 07/03/2019 11:23 AM 07/03/2019 11:28 AM 0.000 0.000 0.000 0.000 0.000 1.24 Not Reported
07/12/2019 05:48 AM 59.00 54.32 51.08 89.78 56.84 74.0 Not Reported 0.00 W 0.67 NW 2.24 W No 0.000 No Precipitation 07/03/2019 11:23 AM 07/03/2019 11:28 AM 0.000 0.000 0.000 0.000 0.000 1.24 Not Reported
07/12/2019 06:03 AM 58.46 54.14 50.90 89.78 56.84 75.0 Not Reported 0.67 NW 0.89 W 1.34 NW No 0.000 No Precipitation 07/03/2019 11:23 AM 07/03/2019 11:28 AM 0.000 0.000 0.000 0.000 0.000 1.24 Not Reported
07/12/2019 06:18 AM 58.28 54.14 51.08 89.78 56.84 76.0 Not Reported 0.00 N 0.00 W 1.34 NW No 0.000 No Precipitation 07/03/2019 11:23 AM 07/03/2019 11:28 AM 0.000 0.000 0.000 0.000 0.000 1.24 Not Reported
07/12/2019 06:34 AM 57.74 53.96 50.90 89.78 56.84 78.0 Not Reported 0.00 N 0.00 W 0.45 S No 0.000 No Precipitation 07/03/2019 11:23 AM 07/03/2019 11:28 AM 0.000 0.000 0.000 0.000 0.000 1.24 Not Reported
07/12/2019 06:48 AM 57.38 53.78 50.90 89.78 56.84 78.0 Not Reported 0.45 NW 0.89 W 0.22 SW No 0.000 No Precipitation 07/03/2019 11:23 AM 07/03/2019 11:28 AM 0.000 0.000 0.000 0.000 0.000 1.24 Not Reported
07/12/2019 07:03 AM 57.74 53.96 51.08 89.78 56.84 78.0 Not Reported 1.12 W 0.89 SW 1.57 W No 0.000 No Precipitation 07/03/2019 11:23 AM 07/03/2019 11:28 AM 0.000 0.000 0.000 0.000 0.000 1.24 Not Reported
07/12/2019 07:18 AM 57.20 53.78 51.26 89.78 56.84 80.0 Not Reported 0.67 NW 0.00 W 2.01 SW No 0.000 No Precipitation 07/03/2019 11:23 AM 07/03/2019 11:28 AM 0.000 0.000 0.000 0.000 0.000 1.24 Not Reported
07/12/2019 07:33 AM 58.10 54.50 51.44 89.78 57.20 77.0 Not Reported 2.46 NW 2.01 NW 1.34 W No 0.000 No Precipitation 07/03/2019 11:23 AM 07/03/2019 11:28 AM 0.000 0.000 0.000 0.000 0.000 1.24 Not Reported
07/12/2019 07:48 AM 59.00 54.68 51.44 89.78 57.20 76.0 Not Reported 1.12 W 0.89 NW 3.58 NW No 0.000 No Precipitation 07/03/2019 11:23 AM 07/03/2019 11:28 AM 0.000 0.000 0.000 0.000 0.000 1.24 Not Reported
07/12/2019 08:03 AM 58.10 54.50 51.62 89.78 57.20 78.0 Not Reported 0.67 SW 1.34 SW 0.67 SW No 0.000 No Precipitation 07/03/2019 11:23 AM 07/03/2019 11:28 AM 0.000 0.000 0.000 0.000 0.000 1.24 Not Reported
07/12/2019 08:18 AM 58.10 54.32 51.62 89.78 57.20 79.0 Not Reported 1.12 W 1.12 W 1.34 SW No 0.000 No Precipitation 07/03/2019 11:23 AM 07/03/2019 11:28 AM 0.000 0.000 0.000 0.000 0.000 1.24 Not Reported
07/12/2019 08:33 AM 61.34 55.76 51.80 89.78 57.20 70.0 Not Reported 0.45 W 0.00 W 0.67 NW No 0.000 No Precipitation 07/03/2019 11:23 AM 07/03/2019 11:28 AM 0.000 0.000 0.000 0.000 0.000 1.24 Not Reported
07/12/2019 08:49 AM 62.42 56.12 51.62 89.78 57.20 67.0 Not Reported 3.13 W 2.46 W 1.57 W No 0.000 No Precipitation 07/03/2019 11:23 AM 07/03/2019 11:28 AM 0.000 0.000 0.000 0.000 0.000 1.24 Not Reported
07/12/2019 09:04 AM 63.86 56.66 51.80 89.78 57.20 64.0 Not Reported 0.45 W 1.12 NW 2.46 SW No 0.000 No Precipitation 07/03/2019 11:23 AM 07/03/2019 11:28 AM 0.000 0.000 0.000 0.000 0.000 1.24 Not Reported
07/12/2019 09:18 AM 64.22 57.02 51.80 89.78 57.20 62.0 Not Reported 1.12 W 0.89 W 1.79 W No 0.000 No Precipitation 07/03/2019 11:23 AM 07/03/2019 11:28 AM 0.000 0.000 0.000 0.000 0.000 1.24 Not Reported
07/12/2019 09:49 AM 66.02 57.92 51.80 89.78 57.20 59.0 Not Reported 2.01 W 1.79 W 2.24 SW No 0.000 No Precipitation 07/03/2019 11:23 AM 07/03/2019 11:28 AM 0.000 0.000 0.000 0.000 0.000 1.24 Not Reported
07/12/2019 10:03 AM 67.28 58.28 52.16 89.78 57.20 57.0 Not Reported 2.91 W 2.91 W 2.91 W No 0.000 No Precipitation 07/03/2019 11:23 AM 07/03/2019 11:28 AM 0.000 0.000 0.000 0.000 0.000 1.24 Not Reported
07/12/2019 10:18 AM 68.18 58.82 52.16 89.78 57.20 56.0 Not Reported 2.01 W 2.68 W 3.36 W No 0.000 No Precipitation 07/03/2019 11:23 AM 07/03/2019 11:28 AM 0.000 0.000 0.000 0.000 0.000 1.24 Not Reported
07/12/2019 10:33 AM 68.90 58.82 51.98 89.78 57.20 55.0 Not Reported 2.24 W 0.89 NW 2.91 SW No 0.000 No Precipitation 07/03/2019 11:23 AM 07/03/2019 11:28 AM 0.000 0.000 0.000 0.000 0.000 1.24 Not Reported
07/12/2019 10:48 AM 71.06 60.08 52.88 89.78 57.20 51.0 Not Reported 2.68 W 1.57 NW 3.13 W No 0.000 No Precipitation 07/03/2019 11:23 AM 07/03/2019 11:28 AM 0.000 0.000 0.000 0.000 0.000 1.24 Not Reported
07/12/2019 11:03 AM 71.78 60.80 52.34 89.78 57.20 51.0 Not Reported 0.89 N 2.68 SW 3.36 W No 0.000 No Precipitation 07/03/2019 11:23 AM 07/03/2019 11:28 AM 0.000 0.000 0.000 0.000 0.000 1.24 Not Reported
07/12/2019 11:18 AM 72.50 60.26 52.16 89.78 57.20 48.0 Not Reported 2.01 W 1.79 SE 4.25 SW No 0.000 No Precipitation 07/03/2019 11:23 AM 07/03/2019 11:28 AM 0.000 0.000 0.000 0.000 0.000 1.24 Not Reported
07/12/2019 11:34 AM 73.58 60.98 52.52 89.78 57.20 47.0 Not Reported 2.68 SW 3.58 SW 4.25 W No 0.000 No Precipitation 07/03/2019 11:23 AM 07/03/2019 11:28 AM 0.000 0.000 0.000 0.000 0.000 1.24 Not Reported
07/12/2019 11:48 AM 74.30 60.98 52.16 89.78 57.20 44.0 Not Reported 1.57 SW 4.25 W 4.03 SW No 0.000 No Precipitation 07/03/2019 11:23 AM 07/03/2019 11:28 AM 0.000 0.000 0.000 0.000 0.000 1.24 Not Reported
07/12/2019 12:03 PM 76.28 61.52 51.08 89.78 57.20 41.0 Not Reported 3.80 SW 2.68 SW 5.37 SW No 0.000 No Precipitation 07/03/2019 11:23 AM 07/03/2019 11:28 AM 0.000 0.000 0.000 0.000 0.000 1.24 Not Reported
07/12/2019 12:18 PM 76.82 61.70 52.34 89.78 57.20 42.0 Not Reported 4.25 W 3.80 SW 4.70 SW No 0.000 No Precipitation 07/03/2019 11:23 AM 07/03/2019 11:28 AM 0.000 0.000 0.000 0.000 0.000 1.24 Not Reported
07/12/2019 12:34 PM 78.08 62.78 x 89.78 57.20 41.0 Not Reported 4.25 SW 4.03 SW 5.59 SW No 0.000 No Precipitation 07/03/2019 11:23 AM 07/03/2019 11:28 AM 0.000 0.000 0.000 0.000 0.000 1.24 Not Reported
07/12/2019 12:48 PM 80.24 63.50 52.88 89.78 57.20 38.0 Not Reported 4.03 W 1.12 W 5.14 SW No 0.000 No Precipitation 07/03/2019 11:23 AM 07/03/2019 11:28 AM 0.000 0.000 0.000 0.000 0.000 1.24 Not Reported
07/12/2019 01:03 PM 79.88 63.50 52.34 89.78 57.20 38.0 Not Reported 3.13 SW 0.45 SW 5.82 W No 0.000 No Precipitation 07/03/2019 11:23 AM 07/03/2019 11:28 AM 0.000 0.000 0.000 0.000 0.000 1.24 Not Reported
07/12/2019 01:18 PM 81.68 63.32 52.34 89.78 57.20 36.0 Not Reported 1.12 W 3.13 SW 5.59 W No 0.000 No Precipitation 07/03/2019 11:23 AM 07/03/2019 11:28 AM 0.000 0.000 0.000 0.000 0.000 1.24 Not Reported
07/12/2019 01:34 PM 82.40 65.12 53.24 89.78 57.20 37.0 Not Reported 2.01 SW 4.70 S 5.59 SW No 0.000 No Precipitation 07/03/2019 11:23 AM 07/03/2019 11:28 AM 0.000 0.000 0.000 0.000 0.000 1.24 Not Reported
07/12/2019 01:48 PM 82.94 64.22 52.70 89.78 57.20 35.0 Not Reported 3.13 SW 2.46 W 5.59 SW No 0.000 No Precipitation 07/03/2019 11:23 AM 07/03/2019 11:28 AM 0.000 0.000 0.000 0.000 0.000 1.24 Not Reported
07/12/2019 02:03 PM 85.46 64.40 50.72 89.78 57.20 30.0 Not Reported 3.36 W 2.24 W 6.93 SW No 0.000 No Precipitation 07/03/2019 11:23 AM 07/03/2019 11:28 AM 0.000 0.000 0.000 0.000 0.000 1.24 Not Reported
07/12/2019 02:19 PM 84.74 64.04 50.36 89.78 57.20 30.0 Not Reported 6.49 SW 6.93 W 6.26 SW No 0.000 No Precipitation 07/03/2019 11:23 AM 07/03/2019 11:28 AM 0.000 0.000 0.000 0.000 0.000 1.24 Not Reported
07/12/2019 02:33 PM 86.18 63.86 49.10 89.78 57.20 29.0 Not Reported 5.59 W 6.93 S 8.05 SW No 0.000 No Precipitation 07/03/2019 11:23 AM 07/03/2019 11:28 AM 0.000 0.000 0.000 0.000 0.000 1.24 Not Reported
07/12/2019 02:49 PM 86.72 63.68 48.38 89.78 57.20 26.0 Not Reported 6.49 W 4.47 SW 7.83 SW No 0.000 No Precipitation 07/03/2019 11:23 AM 07/03/2019 11:28 AM 0.000 0.000 0.000 0.000 0.000 1.24 Not Reported
07/12/2019 03:03 PM 87.26 65.30 50.36 89.78 57.20 29.0 Not Reported 2.01 W 6.93 SW 8.50 W No 0.000 No Precipitation 07/03/2019 11:23 AM 07/03/2019 11:28 AM 0.000 0.000 0.000 0.000 0.000 1.24 Not Reported
07/12/2019 03:19 PM 87.80 64.22 48.38 89.78 57.20 26.0 Not Reported 5.59 SW 5.59 W 7.38 W No 0.000 No Precipitation 07/03/2019 11:23 AM 07/03/2019 11:28 AM 0.000 0.000 0.000 0.000 0.000 1.24 Not Reported
07/12/2019 03:33 PM 86.36 63.86 48.92 89.78 57.20 27.0 Not Reported 6.26 SW 4.70 SW 9.40 SW No 0.000 No Precipitation 07/03/2019 11:23 AM 07/03/2019 11:28 AM 0.000 0.000 0.000 0.000 0.000 1.24 Not Reported
07/12/2019 03:48 PM 88.52 64.58 48.74 89.78 57.20 25.0 Not Reported 5.82 W 8.50 SW 8.72 W No 0.000 No Precipitation 07/03/2019 11:23 AM 07/03/2019 11:28 AM 0.000 0.000 0.000 0.000 0.000 1.24 Not Reported
07/12/2019 04:03 PM 88.70 64.22 48.02 89.78 57.20 25.0 Not Reported 6.93 W 8.50 NW 8.28 NW No 0.000 No Precipitation 07/03/2019 11:23 AM 07/03/2019 11:28 AM 0.000 0.000 0.000 0.000 0.000 1.24 Not Reported
07/12/2019 04:18 PM 88.70 64.04 47.66 89.96 57.20 23.0 Not Reported 7.83 SW 9.84 SW 10.29 W No 0.000 No Precipitation 07/03/2019 11:23 AM 07/03/2019 11:28 AM 0.000 0.000 0.000 0.000 0.000 1.24 Not Reported
07/12/2019 04:33 PM 90.50 64.58 47.66 90.50 57.20 22.0 Not Reported 8.72 W 11.63 W 10.29 W No 0.000 No Precipitation 07/03/2019 11:23 AM 07/03/2019 11:28 AM 0.000 0.000 0.000 0.000 0.000 1.24 Not Reported
07/12/2019 04:49 PM 90.14 64.04 46.94 91.04 57.20 21.0 Not Reported 7.61 W 12.08 W 11.63 W No 0.000 No Precipitation 07/03/2019 11:23 AM 07/03/2019 11:28 AM 0.000 0.000 0.000 0.000 0.000 1.24 Not Reported
07/12/2019 05:03 PM 89.06 64.22 47.30 91.04 57.20 23.0 Not Reported 11.41 W 6.26 W 13.42 W No 0.000 No Precipitation 07/03/2019 11:23 AM 07/03/2019 11:28 AM 0.000 0.000 0.000 0.000 0.000 1.24 Not Reported
07/12/2019 05:18 PM 89.42 64.40 46.76 91.04 57.20 22.0 Not Reported 10.51 W 7.16 W 13.42 W No 0.000 No Precipitation 07/03/2019 11:23 AM 07/03/2019 11:28 AM 0.000 0.000 0.000 0.000 0.000 1.24 Not Reported
07/12/2019 05:33 PM 89.24 64.22 46.94 91.04 57.20 23.0 Not Reported 8.50 SW 10.29 SW 13.65 W No 0.000 No Precipitation 07/03/2019 11:23 AM 07/03/2019 11:28 AM 0.000 0.000 0.000 0.000 0.000 1.24 Not Reported
07/12/2019 05:48 PM 88.34 64.22 47.12 91.04 57.20 24.0 Not Reported 11.86 SW 8.72 W 13.20 SW No 0.000 No Precipitation 07/03/2019 11:23 AM 07/03/2019 11:28 AM 0.000 0.000 0.000 0.000 0.000 1.24 Not Reported
07/12/2019 06:03 PM 87.80 63.50 47.30 91.04 57.20 24.0 Not Reported 11.63 W 12.75 W 15.43 W No 0.000 No Precipitation 07/03/2019 11:23 AM 07/03/2019 11:28 AM 0.000 0.000 0.000 0.000 0.000 1.24 Not Reported
07/12/2019 06:18 PM 87.62 63.86 47.66 91.04 57.20 25.0 Not Reported 13.20 W 13.42 W 13.87 SW No 0.000 No Precipitation 07/03/2019 11:23 AM 07/03/2019 11:28 AM 0.000 0.000 0.000 0.000 0.000 1.24 Not Reported
07/12/2019 06:33 PM 87.80 64.04 49.10 91.04 57.20 25.0 Not Reported 8.72 SW 8.50 SW 15.21 W No 0.000 No Precipitation 07/03/2019 11:23 AM 07/03/2019 11:28 AM 0.000 0.000 0.000 0.000 0.000 1.24 Not Reported
07/12/2019 06:48 PM 86.72 64.22 49.10 91.04 57.20 27.0 Not Reported 11.41 W 10.51 W 15.21 W No 0.000 No Precipitation 07/03/2019 11:23 AM 07/03/2019 11:28 AM 0.000 0.000 0.000 0.000 0.000 1.24 Not Reported
07/12/2019 07:03 PM 87.26 64.22 49.10 91.04 57.20 26.0 Not Reported 10.51 W 14.32 W 14.76 W No 0.000 No Precipitation 07/03/2019 11:23 AM 07/03/2019 11:28 AM 0.000 0.000 0.000 0.000 0.000 1.24 Not Reported
07/12/2019 07:18 PM 85.64 63.68 49.10 91.04 57.20 28.0 Not Reported 14.32 W 12.53 W 16.11 NW No 0.000 No Precipitation 07/03/2019 11:23 AM 07/03/2019 11:28 AM 0.000 0.000 0.000 0.000 0.000 1.24 Not Reported
07/12/2019 07:34 PM 85.10 63.14 49.10 91.04 57.20 28.0 Not Reported 12.97 W 10.29 SW 17.45 NW No 0.000 No Precipitation 07/03/2019 11:23 AM 07/03/2019 11:28 AM 0.000 0.000 0.000 0.000 0.000 1.24 Not Reported
07/12/2019 07:48 PM 83.84 63.14 49.82 91.04 57.20 30.0 Not Reported 12.08 W 8.72 SW 16.78 NW No 0.000 No Precipitation 07/03/2019 11:23 AM 07/03/2019 11:28 AM 0.000 0.000 0.000 0.000 0.000 1.24 Not Reported
07/12/2019 08:03 PM 83.48 63.14 49.64 91.04 57.20 31.0 Not Reported 8.72 W 10.29 W 15.21 W No 0.000 No Precipitation 07/03/2019 11:23 AM 07/03/2019 11:28 AM 0.000 0.000 0.000 0.000 0.000 1.24 Not Reported
07/12/2019 08:19 PM 82.76 62.78 48.74 91.04 57.20 31.0 Not Reported 8.28 SW 7.61 SW 11.86 W No 0.000 No Precipitation 07/03/2019 11:23 AM 07/03/2019 11:28 AM 0.000 0.000 0.000 0.000 0.000 1.24 Not Reported
07/12/2019 08:33 PM 82.94 63.14 48.38 91.04 57.20 30.0 Not Reported 8.50 SW 6.71 SW 11.18 SW No 0.000 No Precipitation 07/03/2019 11:23 AM 07/03/2019 11:28 AM 0.000 0.000 0.000 0.000 0.000 1.24 Not Reported
07/12/2019 08:48 PM 82.04 62.06 49.10 91.04 57.20 31.0 Not Reported 6.93 W 13.42 SW 13.87 SW No 0.000 No Precipitation 07/03/2019 11:23 AM 07/03/2019 11:28 AM 0.000 0.000 0.000 0.000 0.000 1.24 Not Reported
07/12/2019 09:03 PM 80.78 61.88 49.28 91.04 57.20 33.0 Not Reported 8.05 W 8.28 SW 13.42 W No 0.000 No Precipitation 07/03/2019 11:23 AM 07/03/2019 11:28 AM 0.000 0.000 0.000 0.000 0.000 1.24 Not Reported
07/12/2019 09:18 PM 78.98 60.98 48.56 91.04 57.20 34.0 Not Reported 11.63 W 6.49 NW 11.41 W No 0.000 No Precipitation 07/03/2019 11:23 AM 07/03/2019 11:28 AM 0.000 0.000 0.000 0.000 0.000 1.24 Not Reported
07/12/2019 09:33 PM 77.72 60.62 48.92 91.04 57.20 36.0 Not Reported 9.40 W 12.53 W 12.30 W No 0.000 No Precipitation 07/03/2019 11:23 AM 07/03/2019 11:28 AM 0.000 0.000 0.000 0.000 0.000 1.24 Not Reported
07/12/2019 09:49 PM 76.64 60.26 48.74 91.04 57.20 37.0 Not Reported 7.38 SW 8.05 W 12.53 W No 0.000 No Precipitation 07/03/2019 11:23 AM 07/03/2019 11:28 AM 0.000 0.000 0.000 0.000 0.000 1.24 Not Reported
07/12/2019 10:03 PM 75.74 59.90 48.38 91.04 57.20 38.0 Not Reported 7.61 W 4.92 SW 9.84 W No 0.000 No Precipitation 07/03/2019 11:23 AM 07/03/2019 11:28 AM 0.000 0.000 0.000 0.000 0.000 1.24 Not Reported
07/12/2019 10:19 PM 75.02 59.36 47.84 91.04 57.20 38.0 Not Reported 7.16 SW 6.71 SW 9.84 W No 0.000 No Precipitation 07/03/2019 11:23 AM 07/03/2019 11:28 AM 0.000 0.000 0.000 0.000 0.000 1.24 Not Reported
07/12/2019 10:33 PM 75.02 59.00 47.48 91.04 57.20 37.0 Not Reported 9.84 SW 6.49 W 13.65 SW No 0.000 No Precipitation 07/03/2019 11:23 AM 07/03/2019 11:28 AM 0.000 0.000 0.000 0.000 0.000 1.24 Not Reported
07/12/2019 10:48 PM 74.48 58.46 46.76 91.04 57.20 37.0 Not Reported 6.71 W 12.97 W 12.30 W No 0.000 No Precipitation 07/03/2019 11:23 AM 07/03/2019 11:28 AM 0.000 0.000 0.000 0.000 0.000 1.24 Not Reported
07/12/2019 11:03 PM 72.86 58.10 46.94 91.04 57.20 39.0 Not Reported 5.82 SW 6.49 W 12.08 W No 0.000 No Precipitation 07/03/2019 11:23 AM 07/03/2019 11:28 AM 0.000 0.000 0.000 0.000 0.000 1.24 Not Reported
07/12/2019 11:18 PM 72.50 57.92 47.12 91.04 57.20 40.0 Not Reported 8.05 W 10.29 W 12.53 SW No 0.000 No Precipitation 07/03/2019 11:23 AM 07/03/2019 11:28 AM 0.000 0.000 0.000 0.000 0.000 1.24 Not Reported
07/12/2019 11:33 PM 71.06 57.56 47.66 91.04 57.20 43.0 Not Reported 7.16 SW 6.93 SW 14.32 W No 0.000 No Precipitation 07/03/2019 11:23 AM 07/03/2019 11:28 AM 0.000 0.000 0.000 0.000 0.000 1.24 Not Reported
07/12/2019 11:48 PM 70.16 57.56 48.20 91.04 57.20 45.0 Not Reported 6.04 SW 5.59 SW 10.51 SW No 0.000 No Precipitation 07/03/2019 11:23 AM 07/03/2019 11:28 AM 0.000 0.000 0.000 0.000 0.000 1.24 Not Reported